Time;durP1;ratioP1;P1;durP2;ratioP2;P2;SDS_P1;SDS_P2;PMS_P1;PMS_P2;Temp;Humidity;BMP_temperature;BMP_pressure;BME280_temperature;BME280_humidity;BME280_pressure;Samples;Min_cycle;Max_cycle;Signal;HPM_P1;HPM_P2
2022/10/09 00:00:26;;;;;;;15.77;8.93;;;;;;;11.57;94.99;99397.50;2273464;78;21322;-80
2022/10/09 00:03:27;;;;;;;15.65;8.33;;;;;;;11.52;95.13;99404.39;2273576;78;20920;-80
2022/10/09 00:06:27;;;;;;;14.63;7.97;;;;;;;11.46;94.98;99407.78;2273765;78;20938;-79
2022/10/09 00:09:28;;;;;;;15.90;8.20;;;;;;;11.41;95.15;99408.13;2273865;78;20951;-80
2022/10/09 00:12:28;;;;;;;18.20;8.83;;;;;;;11.32;94.92;99404.05;2273520;78;20955;-80
2022/10/09 00:15:28;;;;;;;19.00;8.50;;;;;;;11.24;95.13;99412.56;2273752;78;21014;-80
2022/10/09 00:18:29;;;;;;;18.17;8.03;;;;;;;11.13;95.31;99416.30;2273665;78;20872;-80
2022/10/09 00:21:29;;;;;;;19.00;8.07;;;;;;;11.05;95.51;99421.37;2273692;78;20959;-80
2022/10/09 00:24:30;;;;;;;14.00;7.37;;;;;;;10.99;95.70;99430.83;2273610;78;20919;-80
2022/10/09 00:27:30;;;;;;;19.50;8.83;;;;;;;10.90;96.13;99432.83;2273570;78;20930;-80
2022/10/09 00:30:30;;;;;;;19.50;7.47;;;;;;;10.81;96.10;99432.23;2273682;78;21515;-80
2022/10/09 00:33:31;;;;;;;12.63;7.50;;;;;;;10.73;96.40;99432.50;2273325;78;20936;-80
2022/10/09 00:36:31;;;;;;;24.90;8.53;;;;;;;10.64;96.66;99438.83;2273622;78;20970;-80
2022/10/09 00:39:32;;;;;;;14.23;8.03;;;;;;;10.56;96.59;99440.41;2272897;78;21362;-80
2022/10/09 00:42:32;;;;;;;13.73;7.17;;;;;;;10.49;96.55;99433.28;2273374;78;20888;-80
2022/10/09 00:45:32;;;;;;;14.10;8.20;;;;;;;10.40;96.77;99436.58;2273447;78;20961;-80
2022/10/09 00:48:33;;;;;;;17.37;8.43;;;;;;;10.33;97.60;99441.59;2269447;78;21304;-80
2022/10/09 00:51:33;;;;;;;18.90;7.87;;;;;;;10.25;97.38;99451.86;2269001;78;20967;-80
2022/10/09 00:54:34;;;;;;;15.50;7.40;;;;;;;10.19;97.64;99451.69;2269242;78;21045;-80
2022/10/09 00:57:34;;;;;;;14.43;7.40;;;;;;;10.14;98.12;99456.80;2269124;78;21324;-80
2022/10/09 01:00:34;;;;;;;11.83;7.40;;;;;;;10.13;97.86;99461.98;2269001;78;20967;-80
2022/10/09 01:03:35;;;;;;;15.17;7.67;;;;;;;10.12;97.84;99459.80;2269508;78;20972;-80
2022/10/09 01:06:35;;;;;;;17.20;7.50;;;;;;;10.09;98.16;99462.76;2268953;78;21280;-79
2022/10/09 01:09:36;;;;;;;11.07;7.13;;;;;;;10.06;98.09;99463.56;2269036;78;20995;-79
2022/10/09 01:12:36;;;;;;;15.47;7.47;;;;;;;10.04;98.40;99467.87;2269317;78;20931;-78
2022/10/09 01:15:37;;;;;;;12.60;6.77;;;;;;;10.04;98.25;99469.59;2268858;78;20975;-79
2022/10/09 01:18:37;;;;;;;15.43;6.70;;;;;;;10.00;98.35;99469.06;2269101;78;20955;-79
2022/10/09 01:21:37;;;;;;;12.30;6.90;;;;;;;9.98;98.50;99472.05;2268903;78;20994;-79
2022/10/09 01:24:38;;;;;;;20.30;6.30;;;;;;;9.95;98.22;99465.04;2269039;78;20959;-79
2022/10/09 01:27:40;;;;;;;12.27;7.00;;;;;;;9.93;98.24;99460.63;2268895;78;20931;-79
2022/10/09 01:30:39;;;;;;;17.23;6.90;;;;;;;9.91;98.37;99461.90;2268936;78;21327;-79
2022/10/09 01:33:39;;;;;;;19.70;7.03;;;;;;;9.88;98.25;99466.62;2269031;78;21002;-79
2022/10/09 01:36:39;;;;;;;16.07;7.20;;;;;;;9.87;98.33;99471.38;2269063;78;20924;-78
2022/10/09 01:39:40;;;;;;;15.70;7.17;;;;;;;9.87;98.47;99476.59;2269070;78;21296;-79
2022/10/09 01:42:40;;;;;;;15.37;6.57;;;;;;;9.85;98.81;99477.39;2268927;78;20920;-79
2022/10/09 01:45:41;;;;;;;12.43;6.10;;;;;;;9.85;98.59;99482.61;2269043;78;21078;-79
2022/10/09 01:48:41;;;;;;;11.87;6.53;;;;;;;9.88;98.62;99482.69;2268958;78;21433;-79
2022/10/09 01:51:41;;;;;;;12.80;6.07;;;;;;;9.90;98.50;99483.61;2269251;78;20954;-79
2022/10/09 01:54:42;;;;;;;14.73;6.53;;;;;;;9.95;98.42;99498.94;2269184;78;20980;-78
2022/10/09 01:57:42;;;;;;;11.93;6.83;;;;;;;9.98;98.35;99499.02;2269335;78;20920;-78
2022/10/09 02:00:43;;;;;;;18.17;6.70;;;;;;;10.01;98.31;99499.52;2269015;78;20952;-78
2022/10/09 02:03:43;;;;;;;16.83;7.17;;;;;;;10.02;97.94;99502.16;2269021;78;21315;-78
2022/10/09 02:06:43;;;;;;;10.60;6.60;;;;;;;10.04;98.05;99506.99;2269154;78;20908;-78
2022/10/09 02:09:44;;;;;;;16.33;6.53;;;;;;;10.04;97.99;99506.11;2269411;78;20954;-78
2022/10/09 02:12:44;;;;;;;13.83;6.27;;;;;;;10.06;97.79;99512.25;2269188;78;20951;-79
2022/10/09 02:15:45;;;;;;;11.33;6.97;;;;;;;10.05;97.48;99513.97;2269110;78;20935;-80
2022/10/09 02:18:45;;;;;;;10.77;5.87;;;;;;;10.05;97.26;99519.19;2268538;78;20963;-79
2022/10/09 02:21:46;;;;;;;11.43;6.20;;;;;;;10.06;97.02;99510.94;2269011;78;21387;-79
2022/10/09 02:24:46;;;;;;;13.10;6.40;;;;;;;10.05;96.99;99517.00;2268965;78;20967;-80
2022/10/09 02:27:46;;;;;;;14.63;6.53;;;;;;;10.01;96.64;99517.34;2269072;78;20940;-79
2022/10/09 02:30:47;;;;;;;13.63;6.40;;;;;;;9.90;96.27;99518.39;2269230;78;20920;-79
2022/10/09 02:33:47;;;;;;;10.40;6.30;;;;;;;9.80;96.63;99517.70;2269312;78;20958;-79
2022/10/09 02:36:48;;;;;;;17.20;6.83;;;;;;;9.72;96.67;99527.47;2269024;78;21338;-79
2022/10/09 02:39:49;;;;;;;13.87;6.77;;;;;;;9.62;96.86;99528.07;2269266;78;20975;-80
2022/10/09 02:42:48;;;;;;;13.10;7.20;;;;;;;9.53;97.11;99534.77;2269295;78;20928;-79
2022/10/09 02:45:49;;;;;;;14.23;7.47;;;;;;;9.48;96.97;99532.46;2268855;78;21351;-79
2022/10/09 02:48:49;;;;;;;18.07;7.03;;;;;;;9.43;97.61;99538.39;2272508;78;21011;-79
2022/10/09 02:51:50;;;;;;;13.40;6.67;;;;;;;9.40;97.71;99543.09;2273713;78;20931;-79
2022/10/09 02:54:50;;;;;;;11.53;6.77;;;;;;;9.38;97.24;99543.89;2273705;78;21275;-79
2022/10/09 02:57:51;;;;;;;16.87;6.60;;;;;;;9.33;97.12;99539.86;2273519;78;20923;-79
2022/10/09 03:00:51;;;;;;;15.50;7.40;;;;;;;9.23;97.26;99545.23;2273474;78;20959;-79
2022/10/09 03:03:51;;;;;;;14.87;8.03;;;;;;;9.17;97.93;99558.50;2273641;78;20962;-79
2022/10/09 03:06:52;;;;;;;13.13;6.63;;;;;;;9.11;98.29;99559.63;2273402;78;20950;-79
2022/10/09 03:09:57;;;;;;;14.60;7.10;;;;;;;9.05;98.51;99565.55;2273290;78;20998;-79
2022/10/09 03:12:55;;;;;;;13.70;6.77;;;;;;;9.01;98.54;99564.98;2273312;78;20896;-79
2022/10/09 03:15:56;;;;;;;15.17;7.07;;;;;;;8.95;98.82;99564.81;2273496;77;21076;-79
2022/10/09 03:18:57;;;;;;;11.37;6.13;;;;;;;8.90;98.65;99571.19;2273128;78;20939;-79
2022/10/09 03:21:57;;;;;;;11.90;6.60;;;;;;;8.86;98.99;99574.95;2273279;78;21450;-79
2022/10/09 03:24:57;;;;;;;12.97;6.17;;;;;;;8.80;99.46;99575.64;2273212;78;20924;-79
2022/10/09 03:27:57;;;;;;;15.10;7.97;;;;;;;8.76;99.76;99576.81;2273519;78;20948;-79
2022/10/09 03:30:58;;;;;;;11.57;7.23;;;;;;;8.71;99.69;99581.87;2273334;78;21245;-79
2022/10/09 03:33:58;;;;;;;10.80;7.17;;;;;;;8.67;99.65;99581.31;2273454;78;20896;-79
2022/10/09 03:36:59;;;;;;;13.63;8.10;;;;;;;8.65;99.70;99580.77;2273226;78;20932;-79
2022/10/09 03:39:59;;;;;;;11.47;7.47;;;;;;;8.59;100.00;99585.36;2273260;78;20920;-78
2022/10/09 03:42:59;;;;;;;15.27;8.40;;;;;;;8.53;99.91;99581.27;2273252;78;20954;-79
2022/10/09 03:46:00;;;;;;;24.47;8.23;;;;;;;8.49;99.83;99584.19;2273322;77;21011;-79
2022/10/09 03:49:00;;;;;;;13.50;7.80;;;;;;;8.45;99.90;99588.83;2269630;78;21007;-79
2022/10/09 03:52:01;;;;;;;14.87;8.27;;;;;;;8.41;100.00;99593.89;2268778;78;20924;-79
2022/10/09 03:55:01;;;;;;;13.87;8.60;;;;;;;8.36;100.00;99598.94;2269118;78;20959;-79
2022/10/09 03:58:01;;;;;;;11.07;8.07;;;;;;;8.37;100.00;99601.12;2268855;78;20999;-79
2022/10/09 04:01:02;;;;;;;16.67;8.17;;;;;;;8.37;100.00;99604.61;2268748;78;21038;-80
2022/10/09 04:04:02;;;;;;;12.90;7.83;;;;;;;8.35;100.00;99614.50;2269056;78;20940;-79
2022/10/09 04:07:03;;;;;;;13.43;7.60;;;;;;;8.30;100.00;99607.81;2269148;78;20960;-80
2022/10/09 04:10:03;;;;;;;13.63;6.93;;;;;;;8.27;100.00;99616.81;2268785;78;20935;-80
2022/10/09 04:13:03;;;;;;;17.50;8.17;;;;;;;8.24;100.00;99615.00;2269154;78;20880;-80
2022/10/09 04:16:04;;;;;;;12.67;6.67;;;;;;;8.21;100.00;99622.70;2268873;77;20921;-80
2022/10/09 04:19:04;;;;;;;16.60;6.50;;;;;;;8.18;100.00;99623.02;2268952;78;20888;-79
2022/10/09 04:22:05;;;;;;;14.97;6.53;;;;;;;8.14;100.00;99627.64;2268980;78;20956;-79
2022/10/09 04:25:05;;;;;;;9.50;6.90;;;;;;;8.10;100.00;99630.55;2268895;78;20916;-79
2022/10/09 04:28:05;;;;;;;16.70;6.20;;;;;;;8.08;100.00;99633.52;2269107;78;20877;-79
2022/10/09 04:31:06;;;;;;;10.97;6.80;;;;;;;8.08;100.00;99635.23;2268896;78;20928;-79
2022/10/09 04:34:06;;;;;;;17.07;6.33;;;;;;;8.06;100.00;99641.69;2268805;78;21096;-79
2022/10/09 04:37:07;;;;;;;12.00;6.50;;;;;;;8.00;100.00;99641.47;2268779;78;20951;-79
2022/10/09 04:40:07;;;;;;;14.43;6.80;;;;;;;7.94;100.00;99643.45;2269214;78;20940;-79
2022/10/09 04:43:07;;;;;;;12.83;7.37;;;;;;;7.90;100.00;99650.66;2269033;78;20959;-79
2022/10/09 04:46:08;;;;;;;14.50;7.60;;;;;;;7.87;100.00;99655.76;2268840;76;20955;-79
2022/10/09 04:49:08;;;;;;;17.07;7.93;;;;;;;7.83;100.00;99657.78;2271895;78;20995;-79
2022/10/09 04:52:09;;;;;;;11.00;7.90;;;;;;;7.80;100.00;99658.05;2273114;78;20940;-79
2022/10/09 04:55:09;;;;;;;15.13;7.90;;;;;;;7.79;100.00;99664.97;2273798;78;20951;-81
2022/10/09 04:58:10;;;;;;;16.07;7.60;;;;;;;7.76;100.00;99671.35;2274539;78;20923;-84
2022/10/09 05:01:10;;;;;;;14.47;8.50;;;;;;;7.72;100.00;99678.98;2274617;78;20955;-81
2022/10/09 05:04:10;;;;;;;15.00;8.00;;;;;;;7.70;100.00;99680.64;2274239;78;20920;-81
2022/10/09 05:07:11;;;;;;;15.50;8.30;;;;;;;7.70;100.00;99691.03;2274043;78;20876;-82
2022/10/09 05:10:11;;;;;;;13.47;7.70;;;;;;;7.66;100.00;99684.84;2273665;78;21315;-82
2022/10/09 05:13:12;;;;;;;13.07;6.87;;;;;;;7.64;100.00;99690.39;2273648;78;20987;-81
2022/10/09 05:16:12;;;;;;;16.27;6.87;;;;;;;7.66;100.00;99693.94;2273722;78;20979;-81
2022/10/09 05:19:12;;;;;;;9.00;6.20;;;;;;;7.65;100.00;99699.96;2273575;78;21398;-80
2022/10/09 05:22:13;;;;;;;16.27;7.50;;;;;;;7.65;100.00;99706.05;2273740;78;20967;-80
2022/10/09 05:25:13;;;;;;;11.20;7.17;;;;;;;7.70;100.00;99710.52;2273475;78;20986;-81
2022/10/09 05:28:14;;;;;;;17.03;7.50;;;;;;;7.70;100.00;99709.23;2273930;78;20919;-80
2022/10/09 05:31:14;;;;;;;15.83;8.57;;;;;;;7.75;100.00;99713.77;2273604;78;21319;-80
2022/10/09 05:34:14;;;;;;;21.40;8.00;;;;;;;7.79;100.00;99723.86;2273440;78;20952;-80
2022/10/09 05:37:15;;;;;;;11.40;8.07;;;;;;;7.84;100.00;99720.63;2273918;78;20923;-81
2022/10/09 05:40:15;;;;;;;13.97;8.33;;;;;;;7.88;100.00;99732.03;2273863;78;20986;-81
2022/10/09 05:43:16;;;;;;;14.43;7.83;;;;;;;7.93;100.00;99727.88;2273359;78;21319;-80
2022/10/09 05:46:16;;;;;;;14.60;6.80;;;;;;;7.98;100.00;99728.93;2273680;78;20923;-80
2022/10/09 05:49:16;;;;;;;15.83;6.90;;;;;;;8.09;100.00;99730.61;2273486;78;20994;-81
2022/10/09 05:52:17;;;;;;;11.53;6.07;;;;;;;8.20;100.00;99735.36;2273652;78;21342;-80
2022/10/09 05:55:17;;;;;;;14.97;6.97;;;;;;;8.32;99.79;99744.02;2273621;78;20920;-81
2022/10/09 05:58:18;;;;;;;13.50;6.60;;;;;;;8.38;99.21;99746.86;2273901;78;20924;-80
2022/10/09 06:01:18;;;;;;;14.77;6.47;;;;;;;8.40;98.98;99745.61;2273750;78;21320;-80
2022/10/09 06:04:18;;;;;;;14.40;7.03;;;;;;;8.44;99.02;99744.47;2273672;78;20876;-80
2022/10/09 06:07:19;;;;;;;13.47;8.10;;;;;;;8.50;99.07;99766.80;2273683;78;20963;-80
2022/10/09 06:10:19;;;;;;;11.87;7.70;;;;;;;8.50;99.25;99767.22;2273681;78;20927;-79
2022/10/09 06:13:20;;;;;;;18.27;8.00;;;;;;;8.49;99.27;99774.55;2273791;78;20888;-80
2022/10/09 06:16:22;;;;;;;11.20;8.50;;;;;;;8.51;99.33;99781.58;2244810;78;20967;-80
2022/10/09 06:19:22;;;;;;;14.10;8.60;;;;;;;8.46;99.30;99779.65;2273785;78;20932;-80
2022/10/09 06:22:23;;;;;;;18.17;7.97;;;;;;;8.40;99.82;99792.44;2273912;78;21315;-80
2022/10/09 06:25:23;;;;;;;8.90;8.00;;;;;;;8.42;99.82;99784.27;2273599;78;20970;-80
2022/10/09 06:28:24;;;;;;;11.53;8.33;;;;;;;8.45;99.90;99785.69;2273803;78;20931;-80
2022/10/09 06:31:24;;;;;;;17.50;8.20;;;;;;;8.46;99.59;99788.34;2273622;78;20944;-80
2022/10/09 06:34:24;;;;;;;10.00;7.57;;;;;;;8.45;99.69;99794.38;2273619;78;20931;-81
2022/10/09 06:37:25;;;;;;;11.33;7.83;;;;;;;8.46;99.58;99795.27;2273662;78;20900;-80
2022/10/09 06:40:25;;;;;;;10.97;7.73;;;;;;;8.53;99.73;99792.92;2273525;78;21006;-81
2022/10/09 06:43:26;;;;;;;13.20;8.40;;;;;;;8.62;99.33;99800.17;2273797;78;20912;-81
2022/10/09 06:46:26;;;;;;;13.47;8.50;;;;;;;8.73;98.93;99813.17;2273881;78;20927;-80
2022/10/09 06:49:26;;;;;;;10.63;7.20;;;;;;;8.82;98.72;99813.48;2273505;78;20971;-80
2022/10/09 06:52:27;;;;;;;14.63;8.00;;;;;;;8.94;98.16;99815.62;2273071;78;20978;-80
2022/10/09 06:55:27;;;;;;;13.40;8.90;;;;;;;8.97;97.38;99818.33;2273501;78;20913;-80
2022/10/09 06:58:28;;;;;;;18.03;7.90;;;;;;;9.01;97.53;99810.20;2273318;78;20954;-79
2022/10/09 07:01:31;;;;;;;12.30;9.07;;;;;;;9.11;97.35;99815.77;2273079;78;20966;-79
2022/10/09 07:04:32;;;;;;;15.20;10.53;;;;;;;9.19;96.65;99812.10;2273440;78;20923;-80
2022/10/09 07:07:32;;;;;;;14.67;9.57;;;;;;;9.26;96.27;99821.89;2273011;78;20990;-80
2022/10/09 07:10:32;;;;;;;18.03;10.70;;;;;;;9.36;96.23;99831.77;2273539;78;20909;-80
2022/10/09 07:13:33;;;;;;;15.50;10.20;;;;;;;9.49;95.68;99828.72;2273460;78;20978;-80
2022/10/09 07:16:33;;;;;;;14.30;9.67;;;;;;;9.58;95.24;99842.08;2272627;78;21682;-80
2022/10/09 07:19:34;;;;;;;12.03;9.07;;;;;;;9.58;93.97;99840.77;2271084;78;21057;-79
2022/10/09 07:22:34;;;;;;;14.27;9.47;;;;;;;9.51;93.95;99849.62;2272111;78;20904;-80
2022/10/09 07:25:34;;;;;;;16.00;9.13;;;;;;;9.53;93.59;99848.83;2273577;78;20934;-80
2022/10/09 07:28:35;;;;;;;14.00;9.33;;;;;;;9.59;93.99;99841.66;2272361;78;21279;-80
2022/10/09 07:31:35;;;;;;;13.07;8.77;;;;;;;9.68;94.12;99848.46;2273236;78;20932;-79
2022/10/09 07:34:36;;;;;;;14.17;8.53;;;;;;;9.82;93.96;99848.89;2273290;78;20962;-79
2022/10/09 07:37:36;;;;;;;10.60;8.60;;;;;;;9.99;92.29;99859.41;2272858;78;21354;-80
2022/10/09 07:40:37;;;;;;;9.63;7.90;;;;;;;10.08;92.07;99867.52;2271251;78;20975;-79
2022/10/09 07:43:37;;;;;;;14.70;8.00;;;;;;;10.18;90.78;99859.13;2271421;78;20963;-78
2022/10/09 07:46:37;;;;;;;11.43;7.40;;;;;;;10.25;90.66;99860.64;2270799;78;21406;-79
2022/10/09 07:49:38;;;;;;;16.87;7.80;;;;;;;10.39;89.82;99856.28;2268240;78;21010;-80
2022/10/09 07:52:38;;;;;;;11.17;7.33;;;;;;;10.54;89.85;99866.30;2267278;78;20947;-80
2022/10/09 07:55:39;;;;;;;12.20;7.27;;;;;;;10.53;89.57;99867.14;2268854;78;20920;-79
2022/10/09 07:58:39;;;;;;;10.83;7.77;;;;;;;10.51;89.42;99874.94;2269179;78;21300;-79
2022/10/09 08:01:39;;;;;;;17.10;10.33;;;;;;;10.55;89.62;99876.33;2268859;78;20956;-79
2022/10/09 08:04:40;;;;;;;14.67;8.63;;;;;;;10.64;89.64;99883.11;2269305;78;20946;-79
2022/10/09 08:07:40;;;;;;;15.13;7.43;;;;;;;10.68;89.64;99886.27;2268842;78;21268;-80
2022/10/09 08:10:41;;;;;;;13.40;6.93;;;;;;;10.68;88.90;99884.55;2268901;78;20943;-79
2022/10/09 08:13:41;;;;;;;12.97;7.37;;;;;;;10.66;88.90;99886.65;2269144;78;20976;-79
2022/10/09 08:16:41;;;;;;;10.97;6.87;;;;;;;10.75;88.51;99888.20;2268955;78;21291;-79
2022/10/09 08:19:42;;;;;;;12.30;6.83;;;;;;;10.85;88.61;99885.00;2268622;78;20971;-80
2022/10/09 08:22:43;;;;;;;17.50;7.13;;;;;;;10.93;88.09;99893.05;2268644;78;21107;-80
2022/10/09 08:25:44;;;;;;;6.80;6.10;;;;;;;10.95;87.89;99894.86;2269109;78;21323;-80
2022/10/09 08:28:44;;;;;;;16.48;5.97;;;;;;;10.95;87.50;99899.20;2269038;78;20915;-79
2022/10/09 08:31:45;;;;;;;14.18;7.40;;;;;;;11.00;86.62;99908.93;2268215;78;20957;-80
2022/10/09 08:34:45;;;;;;;13.53;7.85;;;;;;;11.02;85.54;99905.94;2268808;78;20932;-80
2022/10/09 08:37:45;;;;;;;11.08;7.50;;;;;;;11.11;85.15;99910.09;2269146;78;20988;-80
2022/10/09 08:40:45;;;;;;;15.25;8.28;;;;;;;11.15;83.87;99908.45;2269238;78;20982;-80
2022/10/09 08:43:46;;;;;;;16.15;8.08;;;;;;;11.22;84.28;99903.84;2269138;78;21355;-80
2022/10/09 08:46:46;;;;;;;10.53;7.20;;;;;;;11.27;83.60;99904.88;2269340;78;20947;-80
2022/10/09 08:49:47;;;;;;;11.70;6.37;;;;;;;11.40;84.74;99904.35;2271555;78;21018;-80
2022/10/09 08:52:47;;;;;;;8.60;5.42;;;;;;;11.60;83.49;99901.34;2273428;78;20920;-79
2022/10/09 08:55:47;;;;;;;11.97;6.05;;;;;;;11.68;81.94;99907.65;2273493;78;21279;-79
2022/10/09 08:58:48;;;;;;;8.55;4.97;;;;;;;11.83;82.11;99908.05;2273321;78;20951;-79
2022/10/09 09:01:48;;;;;;;10.03;6.20;;;;;;;11.96;79.84;99914.03;2273550;78;20979;-79
2022/10/09 09:04:49;;;;;;;14.90;6.05;;;;;;;11.98;81.73;99907.52;2273345;78;21331;-79
2022/10/09 09:07:49;;;;;;;12.55;6.28;;;;;;;12.07;79.26;99915.16;2273228;78;20888;-79
2022/10/09 09:10:49;;;;;;;9.83;5.78;;;;;;;12.13;79.36;99915.72;2273314;78;20911;-79
2022/10/09 09:13:50;;;;;;;6.75;5.40;;;;;;;12.27;79.35;99918.25;2272906;78;21296;-79
2022/10/09 09:16:50;;;;;;;9.13;5.42;;;;;;;12.49;78.26;99920.02;2272610;78;20975;-79
2022/10/09 09:19:51;;;;;;;11.95;5.42;;;;;;;12.57;78.88;99916.71;2272182;78;20944;-78
2022/10/09 09:22:51;;;;;;;14.00;5.42;;;;;;;12.71;77.51;99926.16;2272992;78;20873;-78
2022/10/09 09:25:51;;;;;;;14.00;5.00;;;;;;;12.75;76.52;99930.19;2273018;78;20987;-77
2022/10/09 09:28:52;;;;;;;11.57;4.72;;;;;;;12.74;77.04;99937.59;2273314;78;21362;-77
2022/10/09 09:31:52;;;;;;;10.88;5.00;;;;;;;12.66;74.92;99943.09;2271966;78;21444;-78
2022/10/09 09:34:53;;;;;;;12.68;5.20;;;;;;;12.61;75.99;99938.19;2272554;78;21006;-78
2022/10/09 09:37:53;;;;;;;11.45;4.80;;;;;;;12.76;76.34;99940.23;2272785;78;20971;-77
2022/10/09 09:40:53;;;;;;;13.05;4.60;;;;;;;12.78;75.73;99940.27;2272737;78;20967;-78
2022/10/09 09:43:54;;;;;;;10.58;4.33;;;;;;;12.79;76.21;99936.38;2272722;78;20924;-79
2022/10/09 09:46:54;;;;;;;11.18;4.85;;;;;;;13.12;74.94;99937.48;2272961;78;20920;-79
2022/10/09 09:49:55;;;;;;;13.95;5.00;;;;;;;13.32;75.54;99942.70;2272431;78;20955;-78
2022/10/09 09:52:55;;;;;;;8.65;4.70;;;;;;;13.61;73.65;99938.41;2272670;78;21358;-78
2022/10/09 09:55:55;;;;;;;7.10;3.85;;;;;;;13.83;74.43;99936.58;2272695;78;20927;-79
2022/10/09 09:58:56;;;;;;;10.10;4.40;;;;;;;13.92;73.67;99935.45;2272917;78;20912;-80
2022/10/09 10:01:56;;;;;;;8.10;5.35;;;;;;;13.74;72.23;99939.06;2272873;78;21006;-79
2022/10/09 10:04:57;;;;;;;9.15;4.45;;;;;;;13.53;72.14;99936.95;2272459;78;20919;-79
2022/10/09 10:07:57;;;;;;;11.97;4.72;;;;;;;13.71;72.72;99933.77;2273094;78;20932;-79
2022/10/09 10:10:57;;;;;;;10.72;4.47;;;;;;;13.71;71.72;99938.58;2272987;78;20912;-79
2022/10/09 10:13:58;;;;;;;14.03;4.75;;;;;;;13.83;72.00;99931.77;2273280;78;20955;-79
2022/10/09 10:16:58;;;;;;;8.35;4.62;;;;;;;14.08;71.13;99931.31;2273577;78;20963;-79
2022/10/09 10:19:59;;;;;;;13.22;4.55;;;;;;;14.17;70.18;99928.83;2273408;78;20971;-79
2022/10/09 10:22:59;;;;;;;8.38;4.28;;;;;;;14.32;69.77;99934.73;2273445;78;21264;-79
2022/10/09 10:25:59;;;;;;;5.85;3.20;;;;;;;14.54;68.31;99937.25;2273379;78;20892;-79
2022/10/09 10:29:00;;;;;;;6.20;3.27;;;;;;;14.55;67.20;99932.02;2273558;78;20962;-79
2022/10/09 10:32:00;;;;;;;11.68;3.33;;;;;;;14.62;68.81;99925.09;2274119;78;20924;-79
2022/10/09 10:35:01;;;;;;;8.05;3.30;;;;;;;14.86;67.73;99921.91;2273827;78;20947;-78
2022/10/09 10:38:01;;;;;;;11.48;4.70;;;;;;;14.91;64.69;99914.53;2273582;78;20931;-79
2022/10/09 10:41:01;;;;;;;9.63;4.45;;;;;;;14.93;65.26;99919.80;2274073;78;20955;-80
2022/10/09 10:44:02;;;;;;;11.20;6.10;;;;;;;14.23;64.28;99926.29;2273968;78;20958;-79
2022/10/09 10:47:02;;;;;;;6.85;3.87;;;;;;;13.61;67.15;99927.91;2274103;78;21342;-79
2022/10/09 10:50:03;;;;;;;10.40;3.25;;;;;;;13.15;68.29;99923.13;2273588;78;21034;-79
2022/10/09 10:53:03;;;;;;;8.23;3.77;;;;;;;12.96;69.61;99921.86;2274179;78;20978;-80
2022/10/09 10:56:03;;;;;;;12.03;4.40;;;;;;;12.85;68.71;99924.70;2273847;78;20943;-81
2022/10/09 10:59:04;;;;;;;5.58;3.77;;;;;;;12.70;69.80;99933.56;2273470;78;20983;-80
2022/10/09 11:02:05;;;;;;;6.30;3.50;;;;;;;12.76;69.85;99928.02;2273592;78;20967;-79
2022/10/09 11:05:05;;;;;;;6.35;3.20;;;;;;;12.85;69.29;99929.06;2273583;78;20923;-80
2022/10/09 11:08:05;;;;;;;6.22;3.05;;;;;;;13.01;66.48;99934.66;2273546;78;20931;-79
2022/10/09 11:11:06;;;;;;;7.15;3.40;;;;;;;13.18;66.11;99932.82;2273768;78;20884;-78
2022/10/09 11:14:06;;;;;;;9.75;3.17;;;;;;;13.28;66.38;99934.33;2273568;78;21315;-79
2022/10/09 11:17:07;;;;;;;8.35;3.10;;;;;;;13.32;64.88;99926.09;2273334;78;20975;-79
2022/10/09 11:20:07;;;;;;;8.40;2.87;;;;;;;13.47;65.74;99924.16;2273211;78;21018;-79
2022/10/09 11:23:07;;;;;;;5.90;2.70;;;;;;;13.55;64.08;99921.25;2273548;78;20920;-80
2022/10/09 11:26:08;;;;;;;8.68;3.20;;;;;;;13.68;64.04;99919.28;2273631;78;20919;-79
2022/10/09 11:29:09;;;;;;;11.68;2.83;;;;;;;13.77;62.23;99919.43;2273085;78;20948;-79
2022/10/09 11:32:09;;;;;;;9.73;3.30;;;;;;;13.56;63.55;99916.03;2272883;78;20920;-79
2022/10/09 11:35:09;;;;;;;4.08;2.77;;;;;;;13.57;63.05;99914.28;2273639;78;20923;-79
2022/10/09 11:38:09;;;;;;;7.12;3.20;;;;;;;13.60;61.57;99917.84;2273742;78;21284;-81
2022/10/09 11:41:10;;;;;;;5.03;2.58;;;;;;;13.68;62.54;99907.47;2273722;78;20955;-79
2022/10/09 11:44:10;;;;;;;4.65;2.47;;;;;;;13.86;61.42;99911.70;2273606;78;20947;-79
2022/10/09 11:47:11;;;;;;;3.85;2.30;;;;;;;13.94;61.16;99914.05;2273759;78;20888;-79
2022/10/09 11:50:11;;;;;;;8.25;2.60;;;;;;;13.96;62.28;99909.70;2273210;78;20987;-78
2022/10/09 11:53:12;;;;;;;8.63;3.87;;;;;;;14.12;62.28;99913.86;2273202;78;20912;-79
2022/10/09 11:56:12;;;;;;;6.55;3.90;;;;;;;14.19;60.74;99914.41;2273129;78;20958;-78
2022/10/09 11:59:12;;;;;;;6.12;3.10;;;;;;;13.99;59.57;99912.38;2273136;78;21276;-79
2022/10/09 12:02:13;;;;;;;4.92;2.50;;;;;;;13.84;60.39;99905.55;2272711;78;20963;-79
2022/10/09 12:05:13;;;;;;;9.85;3.47;;;;;;;13.64;59.25;99913.53;2272759;78;20963;-79
2022/10/09 12:08:14;;;;;;;7.45;3.37;;;;;;;13.51;61.10;99903.69;2273105;78;20951;-78
2022/10/09 12:11:14;;;;;;;7.35;3.25;;;;;;;13.65;61.21;99909.62;2273127;78;21280;-79
2022/10/09 12:14:16;;;;;;;5.35;3.00;;;;;;;13.78;60.26;99902.83;2244312;78;20990;-79
2022/10/09 12:17:17;;;;;;;6.95;2.75;;;;;;;13.91;59.62;99899.99;2273260;78;20935;-80
2022/10/09 12:20:17;;;;;;;9.53;2.67;;;;;;;14.03;58.17;99905.00;2272990;78;20975;-79
2022/10/09 12:23:17;;;;;;;12.35;3.33;;;;;;;14.09;58.50;99897.64;2273367;78;20962;-79
2022/10/09 12:26:18;;;;;;;4.05;1.98;;;;;;;14.13;58.65;99895.94;2273011;78;20939;-79
2022/10/09 12:29:18;;;;;;;7.35;2.20;;;;;;;14.37;58.06;99888.39;2272777;78;20939;-79
2022/10/09 12:32:19;;;;;;;4.12;2.17;;;;;;;14.51;58.36;99888.17;2272920;78;20975;-79
2022/10/09 12:35:19;;;;;;;5.75;2.40;;;;;;;14.61;57.67;99889.17;2273150;78;20999;-80
2022/10/09 12:38:20;;;;;;;8.83;3.20;;;;;;;14.64;56.75;99888.77;2273253;78;20904;-79
2022/10/09 12:41:20;;;;;;;6.60;2.42;;;;;;;14.51;55.89;99893.86;2272910;78;20974;-80
2022/10/09 12:44:20;;;;;;;5.22;2.25;;;;;;;14.41;57.14;99895.88;2273090;78;20940;-79
2022/10/09 12:47:21;;;;;;;9.38;2.72;;;;;;;14.31;57.47;99890.94;2272690;78;21002;-79
2022/10/09 12:50:21;;;;;;;9.38;3.08;;;;;;;14.27;58.91;99880.83;2272757;78;21042;-79
2022/10/09 12:53:22;;;;;;;7.03;3.30;;;;;;;14.27;58.56;99880.83;2273128;78;20876;-80
2022/10/09 12:56:22;;;;;;;10.38;2.77;;;;;;;14.19;57.21;99885.52;2272817;78;20970;-79
2022/10/09 12:59:23;;;;;;;10.30;2.60;;;;;;;13.99;58.01;99882.62;2272826;78;20974;-78
2022/10/09 13:02:23;;;;;;;10.32;2.80;;;;;;;13.83;59.36;99881.47;2272802;78;21029;-80
2022/10/09 13:05:23;;;;;;;6.78;2.60;;;;;;;13.78;59.59;99879.64;2272981;78;20970;-79
2022/10/09 13:08:24;;;;;;;5.30;2.40;;;;;;;13.73;59.94;99880.88;2272827;78;21408;-79
2022/10/09 13:11:24;;;;;;;4.08;2.15;;;;;;;13.74;59.95;99883.95;2272354;78;20958;-80
2022/10/09 13:14:25;;;;;;;5.95;2.47;;;;;;;13.63;59.92;99893.40;2272932;78;20967;-79
2022/10/09 13:17:25;;;;;;;4.47;2.70;;;;;;;13.44;60.86;99890.02;2272580;78;21367;-80
2022/10/09 13:20:26;;;;;;;6.55;2.70;;;;;;;13.37;61.27;99886.41;2272627;78;20971;-79
2022/10/09 13:23:26;;;;;;;7.28;2.47;;;;;;;13.33;61.76;99885.91;2272967;78;20885;-80
2022/10/09 13:26:26;;;;;;;5.00;2.47;;;;;;;13.45;61.05;99894.41;2273058;78;20983;-80
2022/10/09 13:29:27;;;;;;;4.60;2.40;;;;;;;13.42;60.79;99888.68;2273168;78;21358;-81
2022/10/09 13:32:27;;;;;;;6.87;2.62;;;;;;;13.35;60.91;99888.13;2272819;78;20986;-81
2022/10/09 13:35:27;;;;;;;7.05;2.62;;;;;;;13.25;61.41;99891.02;2273170;78;20940;-80
2022/10/09 13:38:28;;;;;;;7.03;2.98;;;;;;;13.08;61.35;99886.75;2273270;78;20962;-81
2022/10/09 13:41:28;;;;;;;4.78;2.67;;;;;;;12.99;61.80;99888.28;2273263;78;20967;-81
2022/10/09 13:44:28;;;;;;;6.30;2.62;;;;;;;12.90;62.20;99888.98;2273335;78;20992;-79
2022/10/09 13:47:29;;;;;;;8.40;2.83;;;;;;;12.91;62.66;99881.59;2273231;78;21323;-80
2022/10/09 13:50:29;;;;;;;6.40;2.50;;;;;;;12.95;63.15;99892.58;2272790;78;20997;-80
2022/10/09 13:53:30;;;;;;;7.03;2.55;;;;;;;12.94;63.84;99889.93;2273462;78;20939;-80
2022/10/09 13:56:30;;;;;;;3.27;2.30;;;;;;;13.00;64.06;99880.88;2273284;78;20927;-80
2022/10/09 13:59:31;;;;;;;4.40;2.50;;;;;;;13.10;62.81;99878.02;2273009;78;20963;-80
2022/10/09 14:02:31;;;;;;;4.67;2.33;;;;;;;13.17;62.54;99878.20;2273137;78;20963;-80